Time,TemperatureF,DewpointF,PressureIn,WindDirection,WindDirectionDegrees,WindSpeedMPH,WindSpeedGustMPH,Humidity,HourlyPrecipIn,Conditions,Clouds,dailyrainin,SoftwareType,DateUTC
2013-02-10 00:01:00,31.0,15.0,29.76,West,270,1.0,5.0,50,0.00,,,0.00,,2013-02-10 08:01:00,
2013-02-10 00:11:00,31.0,15.0,29.76,West,270,1.0,5.0,50,0.00,,,0.00,,2013-02-10 08:11:00,
2013-02-10 00:21:00,31.0,14.0,29.79,West,270,0.0,3.0,49,0.00,,,0.00,,2013-02-10 08:21:00,
2013-02-10 00:31:00,31.0,14.0,29.79,West,270,3.0,5.0,49,0.00,,,0.00,,2013-02-10 08:31:00,
2013-02-10 00:42:00,31.0,14.0,29.79,West,270,3.0,5.0,49,0.00,,,0.00,,2013-02-10 08:42:00,
2013-02-10 00:52:00,32.0,15.0,29.79,West,270,1.0,2.0,48,0.00,,,0.00,,2013-02-10 08:52:00,
2013-02-10 01:01:00,31.0,14.0,29.76,West,270,0.0,2.0,48,0.00,,,0.00,,2013-02-10 09:01:00,
2013-02-10 01:11:00,31.0,14.0,29.76,West,270,0.0,2.0,48,0.00,,,0.00,,2013-02-10 09:11:00,
2013-02-10 01:21:00,31.0,13.0,29.79,West,270,2.0,5.0,47,0.00,,,0.00,,2013-02-10 09:21:00,
2013-02-10 01:31:00,29.0,11.0,29.79,West,270,3.0,5.0,47,0.00,,,0.00,,2013-02-10 09:31:00,
2013-02-10 01:41:00,29.0,11.0,29.79,West,270,3.0,5.0,47,0.00,,,0.00,,2013-02-10 09:41:00,
2013-02-10 01:51:00,29.0,12.0,29.79,West,270,5.0,5.0,49,0.00,,,0.00,,2013-02-10 09:51:00,
2013-02-10 02:01:00,29.0,12.0,29.79,West,270,3.0,5.0,49,0.00,,,0.00,,2013-02-10 10:01:00,
2013-02-10 02:11:00,30.0,13.0,29.79,West,270,0.0,3.0,49,0.00,,,0.00,,2013-02-10 10:11:00,
2013-02-10 02:21:00,30.0,13.0,29.79,West,270,0.0,3.0,49,0.00,,,0.00,,2013-02-10 10:21:00,
2013-02-10 02:31:00,31.0,14.0,29.76,West,270,2.0,3.0,48,0.00,,,0.00,,2013-02-10 10:31:00,
2013-02-10 02:41:00,31.0,14.0,29.76,West,270,2.0,3.0,48,0.00,,,0.00,,2013-02-10 10:41:00,
2013-02-10 02:51:00,29.0,11.0,29.76,West,270,2.0,3.0,47,0.00,,,0.00,,2013-02-10 10:51:00,
2013-02-10 03:01:00,30.0,12.0,29.76,West,270,2.0,3.0,47,0.00,,,0.00,,2013-02-10 11:01:00,
2013-02-10 03:11:00,30.0,12.0,29.76,West,270,2.0,3.0,47,0.00,,,0.00,,2013-02-10 11:11:00,
2013-02-10 03:21:00,29.0,11.0,29.76,WSW,248,3.0,5.0,47,0.00,,,0.00,,2013-02-10 11:21:00,
2013-02-10 03:31:00,30.0,12.0,29.76,WSW,248,3.0,3.0,47,0.00,,,0.00,,2013-02-10 11:31:00,
2013-02-10 03:41:00,30.0,12.0,29.76,WSW,248,3.0,3.0,47,0.00,,,0.00,,2013-02-10 11:41:00,
2013-02-10 03:52:00,29.0,11.0,29.76,SW,225,3.0,3.0,46,0.00,,,0.00,,2013-02-10 11:52:00,
2013-02-10 04:01:00,29.0,11.0,29.76,SW,225,2.0,5.0,47,0.00,,,0.00,,2013-02-10 12:01:00,
2013-02-10 04:12:00,29.0,12.0,29.76,SW,225,0.0,2.0,48,0.00,,,0.00,,2013-02-10 12:12:00,
2013-02-10 04:21:00,29.0,12.0,29.76,SW,225,0.0,2.0,48,0.00,,,0.00,,2013-02-10 12:21:00,
2013-02-10 04:31:00,29.0,11.0,29.76,SW,225,1.0,3.0,47,0.00,,,0.00,,2013-02-10 12:31:00,
2013-02-10 04:41:00,29.0,11.0,29.76,SW,225,1.0,3.0,47,0.00,,,0.00,,2013-02-10 12:41:00,
2013-02-10 04:52:00,29.0,11.0,29.76,SW,225,2.0,3.0,47,0.00,,,0.00,,2013-02-10 12:52:00,
2013-02-10 05:02:00,29.0,12.0,29.76,SW,225,2.0,5.0,48,0.00,,,0.00,,2013-02-10 13:02:00,
2013-02-10 05:11:00,29.0,12.0,29.76,SW,225,2.0,5.0,48,0.00,,,0.00,,2013-02-10 13:11:00,
2013-02-10 05:21:00,31.0,13.0,29.76,SW,225,3.0,5.0,46,0.00,,,0.00,,2013-02-10 13:21:00,
2013-02-10 05:31:00,31.0,12.0,29.76,SW,225,2.0,5.0,44,0.00,,,0.00,,2013-02-10 13:31:00,
2013-02-10 05:41:00,31.0,12.0,29.76,SW,225,2.0,5.0,44,0.00,,,0.00,,2013-02-10 13:41:00,
2013-02-10 05:51:00,31.0,11.0,29.76,SW,225,2.0,5.0,43,0.00,,,0.00,,2013-02-10 13:51:00,
2013-02-10 06:01:00,29.0,11.0,29.76,SW,225,2.0,3.0,46,0.00,,,0.00,,2013-02-10 14:01:00,
2013-02-10 06:11:00,29.0,11.0,29.76,SW,225,2.0,3.0,46,0.00,,,0.00,,2013-02-10 14:11:00,
2013-02-10 06:21:00,30.0,11.0,29.76,SW,225,2.0,3.0,44,0.00,,,0.00,,2013-02-10 14:21:00,
2013-02-10 06:31:00,30.0,11.0,29.76,SW,225,2.0,3.0,44,0.00,,,0.00,,2013-02-10 14:31:00,
2013-02-10 06:41:00,30.0,11.0,29.76,SW,225,2.0,3.0,44,0.00,,,0.00,,2013-02-10 14:41:00,
2013-02-10 06:52:00,30.0,11.0,29.76,SW,225,3.0,5.0,45,0.00,,,0.00,,2013-02-10 14:52:00,
2013-02-10 07:01:00,29.0,10.0,29.76,SW,225,2.0,3.0,44,0.00,,,0.00,,2013-02-10 15:01:00,
2013-02-10 07:11:00,29.0,10.0,29.76,SW,225,2.0,3.0,44,0.00,,,0.00,,2013-02-10 15:11:00,
2013-02-10 07:21:00,31.0,12.0,29.76,SW,225,2.0,3.0,44,0.00,,,0.00,,2013-02-10 15:21:00,
2013-02-10 07:31:00,33.0,11.0,29.76,SW,225,5.0,6.0,40,0.00,,,0.00,,2013-02-10 15:31:00,
2013-02-10 07:41:00,33.0,11.0,29.76,SW,225,5.0,6.0,40,0.00,,,0.00,,2013-02-10 15:41:00,
2013-02-10 07:52:00,33.0,11.0,29.76,SW,225,3.0,5.0,40,0.00,,,0.00,,2013-02-10 15:52:00,
2013-02-10 08:01:00,35.0,11.0,29.76,West,261,5.0,6.0,37,0.00,,,0.00,,2013-02-10 16:01:00,
2013-02-10 08:11:00,37.0,13.0,29.76,WSW,252,6.0,10.0,36,0.00,,,0.00,,2013-02-10 16:11:00,
2013-02-10 08:21:00,37.0,13.0,29.76,WSW,252,6.0,10.0,36,0.00,,,0.00,,2013-02-10 16:21:00,
2013-02-10 08:31:00,38.0,13.0,29.79,West,270,6.0,8.0,36,0.00,,,0.00,,2013-02-10 16:31:00,
2013-02-10 08:41:00,38.0,13.0,29.79,West,265,6.0,8.0,36,0.00,,,0.00,,2013-02-10 16:41:00,
2013-02-10 08:52:00,38.0,13.0,29.79,West,265,6.0,8.0,36,0.00,,,0.00,,2013-02-10 16:52:00,
2013-02-10 09:01:00,40.0,15.0,29.79,WSW,248,5.0,8.0,35,0.00,,,0.00,,2013-02-10 17:01:00,
2013-02-10 09:11:00,41.0,15.0,29.79,SW,225,5.0,8.0,34,0.00,,,0.00,,2013-02-10 17:11:00,
2013-02-10 09:21:00,41.0,15.0,29.79,SW,225,5.0,8.0,34,0.00,,,0.00,,2013-02-10 17:21:00,
2013-02-10 09:31:00,43.0,14.0,29.79,West,270,3.0,6.0,31,0.00,,,0.00,,2013-02-10 17:31:00,
2013-02-10 09:41:00,45.0,14.0,29.79,West,270,4.0,6.0,28,0.00,,,0.00,,2013-02-10 17:41:00,
2013-02-10 09:52:00,45.0,14.0,29.79,West,270,4.0,6.0,28,0.00,,,0.00,,2013-02-10 17:52:00,
2013-02-10 10:01:00,44.0,11.0,29.79,West,270,7.0,12.0,26,0.00,,,0.00,,2013-02-10 18:01:00,
2013-02-10 10:11:00,45.0,9.0,29.79,WNW,292,8.0,10.0,23,0.00,,,0.00,,2013-02-10 18:11:00,
2013-02-10 10:21:00,45.0,9.0,29.79,WNW,292,8.0,10.0,23,0.00,,,0.00,,2013-02-10 18:21:00,
2013-02-10 10:31:00,46.0,10.0,29.79,NW,315,7.0,9.0,23,0.00,,,0.00,,2013-02-10 18:31:00,
2013-02-10 10:41:00,46.0,10.0,29.79,NW,315,7.0,9.0,23,0.00,,,0.00,,2013-02-10 18:41:00,
2013-02-10 10:52:00,46.0,10.0,29.79,NW,315,8.0,9.0,23,0.00,,,0.00,,2013-02-10 18:52:00,
2013-02-10 11:01:00,46.0,10.0,29.82,WNW,301,7.0,12.0,23,0.00,,,0.00,,2013-02-10 19:01:00,
2013-02-10 11:11:00,47.0,11.0,29.82,NW,313,7.0,9.0,23,0.00,,,0.00,,2013-02-10 19:11:00,
2013-02-10 11:21:00,47.0,11.0,29.82,NW,313,7.0,9.0,23,0.00,,,0.00,,2013-02-10 19:21:00,
2013-02-10 11:31:00,48.0,9.0,29.82,West,270,6.0,12.0,20,0.00,,,0.00,,2013-02-10 19:31:00,
2013-02-10 11:42:00,48.0,9.0,29.82,NW,315,6.0,10.0,20,0.00,,,0.00,,2013-02-10 19:42:00,
2013-02-10 11:52:00,48.0,9.0,29.82,NW,315,6.0,10.0,20,0.00,,,0.00,,2013-02-10 19:52:00,
2013-02-10 12:01:00,49.0,10.0,29.79,North,0,6.0,9.0,20,0.00,,,0.00,,2013-02-10 20:01:00,
2013-02-10 12:11:00,49.0,10.0,29.79,NW,308,7.0,12.0,20,0.00,,,0.00,,2013-02-10 20:11:00,
2013-02-10 12:21:00,49.0,10.0,29.79,NW,308,7.0,12.0,20,0.00,,,0.00,,2013-02-10 20:21:00,
2013-02-10 12:31:00,49.0,10.0,29.79,North,356,5.0,9.0,20,0.00,,,0.00,,2013-02-10 20:31:00,
2013-02-10 12:41:00,49.0,10.0,29.79,NW,317,3.0,8.0,20,0.00,,,0.00,,2013-02-10 20:41:00,
2013-02-10 12:52:00,49.0,10.0,29.79,NW,317,3.0,8.0,20,0.00,,,0.00,,2013-02-10 20:52:00,
2013-02-10 13:02:00,49.0,10.0,29.79,NW,315,5.0,8.0,20,0.00,,,0.00,,2013-02-10 21:02:00,
2013-02-10 13:11:00,50.0,11.0,29.76,West,270,6.0,8.0,20,0.00,,,0.00,,2013-02-10 21:11:00,
2013-02-10 13:21:00,50.0,11.0,29.76,West,270,6.0,8.0,20,0.00,,,0.00,,2013-02-10 21:21:00,
2013-02-10 13:31:00,50.0,11.0,29.76,West,270,3.0,8.0,20,0.00,,,0.00,,2013-02-10 21:31:00,
2013-02-10 13:41:00,49.0,10.0,29.79,NW,315,6.0,8.0,20,0.00,,,0.00,,2013-02-10 21:41:00,
2013-02-10 13:52:00,49.0,10.0,29.79,NW,315,6.0,8.0,20,0.00,,,0.00,,2013-02-10 21:52:00,
2013-02-10 14:01:00,51.0,11.0,29.76,NNW,338,5.0,9.0,20,0.00,,,0.00,,2013-02-10 22:01:00,
2013-02-10 14:11:00,50.0,11.0,29.76,West,270,6.0,9.0,20,0.00,,,0.00,,2013-02-10 22:11:00,
2013-02-10 14:21:00,50.0,11.0,29.76,West,270,6.0,9.0,20,0.00,,,0.00,,2013-02-10 22:21:00,
2013-02-10 14:31:00,49.0,10.0,29.73,West,270,5.0,7.0,20,0.00,,,0.00,,2013-02-10 22:31:00,
2013-02-10 14:41:00,51.0,11.0,29.73,South,191,5.0,9.0,20,0.00,,,0.00,,2013-02-10 22:41:00,
2013-02-10 14:52:00,51.0,11.0,29.73,South,191,5.0,9.0,20,0.00,,,0.00,,2013-02-10 22:52:00,
2013-02-10 15:01:00,51.0,11.0,29.73,SW,215,6.0,9.0,20,0.00,,,0.00,,2013-02-10 23:01:00,
2013-02-10 15:11:00,51.0,11.0,29.73,SW,215,6.0,9.0,20,0.00,,,0.00,,2013-02-10 23:11:00,
2013-02-10 15:21:00,51.0,11.0,29.73,SW,234,5.0,10.0,20,0.00,,,0.00,,2013-02-10 23:21:00,
2013-02-10 15:31:00,51.0,11.0,29.73,West,263,5.0,10.0,20,0.00,,,0.00,,2013-02-10 23:31:00,
2013-02-10 15:41:00,51.0,11.0,29.73,WSW,253,6.0,10.0,20,0.00,,,0.00,,2013-02-10 23:41:00,
2013-02-10 15:52:00,51.0,11.0,29.73,WSW,253,6.0,10.0,20,0.00,,,0.00,,2013-02-10 23:52:00,
2013-02-10 16:01:00,50.0,11.0,29.73,West,270,6.0,14.0,20,0.00,,,0.00,,2013-02-11 00:01:00,
2013-02-10 16:11:00,50.0,11.0,29.73,West,270,7.0,13.0,20,0.00,,,0.00,,2013-02-11 00:11:00,
2013-02-10 16:21:00,50.0,11.0,29.73,West,270,7.0,13.0,20,0.00,,,0.00,,2013-02-11 00:21:00,
2013-02-10 16:31:00,50.0,11.0,29.73,West,270,7.0,10.0,20,0.00,,,0.00,,2013-02-11 00:31:00,
2013-02-10 16:41:00,50.0,11.0,29.73,West,270,7.0,10.0,20,0.00,,,0.00,,2013-02-11 00:41:00,
2013-02-10 16:52:00,50.0,11.0,29.73,West,270,7.0,10.0,20,0.00,,,0.00,,2013-02-11 00:52:00,
2013-02-10 17:01:00,49.0,10.0,29.73,West,270,7.0,10.0,20,0.00,,,0.00,,2013-02-11 01:01:00,
2013-02-10 17:11:00,49.0,10.0,29.73,West,270,7.0,10.0,20,0.00,,,0.00,,2013-02-11 01:11:00,
2013-02-10 17:21:00,48.0,9.0,29.73,West,270,7.0,10.0,20,0.00,,,0.00,,2013-02-11 01:21:00,
2013-02-10 17:31:00,47.0,8.0,29.73,West,265,7.0,9.0,20,0.00,,,0.00,,2013-02-11 01:31:00,
2013-02-10 17:41:00,45.0,7.0,29.73,West,265,6.0,7.0,21,0.00,,,0.00,,2013-02-11 01:41:00,
2013-02-10 17:51:00,45.0,7.0,29.73,West,265,6.0,7.0,21,0.00,,,0.00,,2013-02-11 01:51:00,
2013-02-10 18:01:00,43.0,6.0,29.73,WSW,248,3.0,6.0,21,0.00,,,0.00,,2013-02-11 02:01:00,
2013-02-10 18:21:00,41.0,5.0,29.73,WSW,248,3.0,6.0,22,0.00,,,0.00,,2013-02-11 02:21:00,
2013-02-10 18:31:00,41.0,5.0,29.73,WSW,248,3.0,5.0,22,0.00,,,0.00,,2013-02-11 02:31:00,
2013-02-10 18:41:00,40.0,4.0,29.73,WSW,248,3.0,5.0,22,0.00,,,0.00,,2013-02-11 02:41:00,
2013-02-10 18:52:00,40.0,4.0,29.73,WSW,248,3.0,5.0,22,0.00,,,0.00,,2013-02-11 02:52:00,
2013-02-10 19:01:00,40.0,4.0,29.73,WSW,248,3.0,5.0,22,0.00,,,0.00,,2013-02-11 03:01:00,
2013-02-10 19:11:00,39.0,3.0,29.73,WSW,248,0.0,3.0,22,0.00,,,0.00,,2013-02-11 03:11:00,
2013-02-10 19:21:00,39.0,3.0,29.73,WSW,248,0.0,3.0,22,0.00,,,0.00,,2013-02-11 03:21:00,
2013-02-10 19:31:00,38.0,3.0,29.73,WSW,248,0.0,5.0,22,0.00,,,0.00,,2013-02-11 03:31:00,
2013-02-10 19:41:00,38.0,3.0,29.73,WSW,248,0.0,5.0,22,0.00,,,0.00,,2013-02-11 03:41:00,
2013-02-10 19:52:00,38.0,3.0,29.73,WSW,248,0.0,5.0,22,0.00,,,0.00,,2013-02-11 03:52:00,
2013-02-10 20:01:00,39.0,6.0,29.76,West,270,5.0,6.0,25,0.00,,,0.00,,2013-02-11 04:01:00,
2013-02-10 20:31:00,38.0,11.0,29.76,West,270,5.0,6.0,32,0.00,,,0.00,,2013-02-11 04:31:00,
2013-02-10 20:41:00,39.0,14.0,29.76,West,270,5.0,6.0,35,0.00,,,0.00,,2013-02-11 04:41:00,
2013-02-10 20:52:00,39.0,14.0,29.76,West,270,5.0,6.0,35,0.00,,,0.00,,2013-02-11 04:52:00,
2013-02-10 21:01:00,37.0,11.0,29.76,WSW,248,2.0,3.0,33,0.00,,,0.00,,2013-02-11 05:01:00,
2013-02-10 21:11:00,37.0,11.0,29.79,WSW,248,5.0,6.0,34,0.00,,,0.00,,2013-02-11 05:11:00,
2013-02-10 21:31:00,38.0,13.0,29.79,West,261,4.0,6.0,35,0.00,,,0.00,,2013-02-11 05:31:00,
2013-02-10 21:41:00,39.0,14.0,29.79,West,270,0.0,3.0,36,0.00,,,0.00,,2013-02-11 05:41:00,
2013-02-10 21:52:00,39.0,14.0,29.79,West,270,0.0,3.0,36,0.00,,,0.00,,2013-02-11 05:52:00,
2013-02-10 22:01:00,38.0,14.0,29.79,WSW,248,3.0,6.0,37,0.00,,,0.00,,2013-02-11 06:01:00,
2013-02-10 22:11:00,38.0,14.0,29.79,WSW,248,2.0,5.0,37,0.00,,,0.00,,2013-02-11 06:11:00,
2013-02-10 22:21:00,38.0,14.0,29.79,WSW,248,2.0,5.0,37,0.00,,,0.00,,2013-02-11 06:21:00,
2013-02-10 22:31:00,39.0,15.0,29.79,WSW,248,0.0,2.0,37,0.00,,,0.00,,2013-02-11 06:31:00,
2013-02-10 22:41:00,39.0,16.0,29.79,North,0,8.0,12.0,39,0.00,,,0.00,,2013-02-11 06:41:00,
2013-02-10 22:52:00,39.0,16.0,29.79,North,0,8.0,12.0,39,0.00,,,0.00,,2013-02-11 06:52:00,
2013-02-10 23:01:00,38.0,20.0,29.82,North,0,1.0,6.0,47,0.00,,,0.00,,2013-02-11 07:01:00,
2013-02-10 23:11:00,37.0,20.0,29.79,North,0,1.0,6.0,50,0.00,,,0.00,,2013-02-11 07:11:00,
2013-02-10 23:21:00,37.0,20.0,29.79,North,0,1.0,6.0,50,0.00,,,0.00,,2013-02-11 07:21:00,
2013-02-10 23:31:00,37.0,21.0,29.79,North,0,2.0,5.0,53,0.00,,,0.00,,2013-02-11 07:31:00,
2013-02-10 23:41:00,37.0,23.0,29.79,North,0,2.0,2.0,56,0.00,,,0.00,,2013-02-11 07:41:00,
2013-02-10 23:52:00,37.0,23.0,29.79,North,0,2.0,2.0,56,0.00,,,0.00,,2013-02-11 07:52:00,